sensor_id;sensor_type;location;lat;lon;timestamp;temperature;humidity
2363;DHT22;1192;51.664;7.626;2022-09-06T00:02:17;24.30;89.00
2363;DHT22;1192;51.664;7.626;2022-09-06T00:04:44;24.30;89.10
2363;DHT22;1192;51.664;7.626;2022-09-06T00:07:10;24.30;89.10
2363;DHT22;1192;51.664;7.626;2022-09-06T00:09:37;24.30;89.20
2363;DHT22;1192;51.664;7.626;2022-09-06T00:12:04;24.30;89.30
2363;DHT22;1192;51.664;7.626;2022-09-06T00:14:32;24.20;89.20
2363;DHT22;1192;51.664;7.626;2022-09-06T00:16:59;24.20;89.30
2363;DHT22;1192;51.664;7.626;2022-09-06T00:19:26;24.20;89.30
2363;DHT22;1192;51.664;7.626;2022-09-06T00:21:53;24.20;89.40
2363;DHT22;1192;51.664;7.626;2022-09-06T00:24:19;24.20;89.40
2363;DHT22;1192;51.664;7.626;2022-09-06T00:26:46;24.20;89.40
2363;DHT22;1192;51.664;7.626;2022-09-06T00:29:13;24.20;89.50
2363;DHT22;1192;51.664;7.626;2022-09-06T00:31:41;24.20;89.60
2363;DHT22;1192;51.664;7.626;2022-09-06T00:34:08;24.20;90.00
2363;DHT22;1192;51.664;7.626;2022-09-06T00:36:35;24.10;89.50
2363;DHT22;1192;51.664;7.626;2022-09-06T00:39:02;24.20;89.80
2363;DHT22;1192;51.664;7.626;2022-09-06T00:41:29;24.10;89.70
2363;DHT22;1192;51.664;7.626;2022-09-06T00:43:56;24.10;89.70
2363;DHT22;1192;51.664;7.626;2022-09-06T00:46:26;24.10;89.80
2363;DHT22;1192;51.664;7.626;2022-09-06T00:48:58;24.10;89.80
2363;DHT22;1192;51.664;7.626;2022-09-06T00:51:27;24.10;90.00
2363;DHT22;1192;51.664;7.626;2022-09-06T00:53:54;24.00;89.90
2363;DHT22;1192;51.664;7.626;2022-09-06T00:56:23;24.00;90.00
2363;DHT22;1192;51.664;7.626;2022-09-06T00:58:50;24.00;90.00
2363;DHT22;1192;51.664;7.626;2022-09-06T01:01:17;24.00;90.00
2363;DHT22;1192;51.664;7.626;2022-09-06T01:03:43;24.00;90.10
2363;DHT22;1192;51.664;7.626;2022-09-06T01:06:20;24.00;90.10
2363;DHT22;1192;51.664;7.626;2022-09-06T01:08:58;24.00;90.10
2363;DHT22;1192;51.664;7.626;2022-09-06T01:11:42;24.00;90.10
2363;DHT22;1192;51.664;7.626;2022-09-06T01:14:21;24.00;90.20
2363;DHT22;1192;51.664;7.626;2022-09-06T01:16:56;24.00;90.30
2363;DHT22;1192;51.664;7.626;2022-09-06T01:22:59;23.90;90.30
2363;DHT22;1192;51.664;7.626;2022-09-06T01:25:35;23.90;90.30
2363;DHT22;1192;51.664;7.626;2022-09-06T01:28:22;23.90;90.40
2363;DHT22;1192;51.664;7.626;2022-09-06T01:30:52;23.90;90.40
2363;DHT22;1192;51.664;7.626;2022-09-06T01:33:26;23.90;90.50
2363;DHT22;1192;51.664;7.626;2022-09-06T01:35:59;23.90;90.50
2363;DHT22;1192;51.664;7.626;2022-09-06T01:38:26;23.90;90.50
2363;DHT22;1192;51.664;7.626;2022-09-06T01:40:54;23.80;90.50
2363;DHT22;1192;51.664;7.626;2022-09-06T01:43:25;23.80;90.50
2363;DHT22;1192;51.664;7.626;2022-09-06T01:45:59;23.80;90.60
2363;DHT22;1192;51.664;7.626;2022-09-06T01:48:36;23.80;90.60
2363;DHT22;1192;51.664;7.626;2022-09-06T01:51:13;23.80;90.70
2363;DHT22;1192;51.664;7.626;2022-09-06T01:53:51;23.80;90.70
2363;DHT22;1192;51.664;7.626;2022-09-06T01:56:25;23.80;90.70
2363;DHT22;1192;51.664;7.626;2022-09-06T01:59:14;23.80;90.80
2363;DHT22;1192;51.664;7.626;2022-09-06T02:01:51;23.80;90.80
2363;DHT22;1192;51.664;7.626;2022-09-06T02:04:26;23.80;90.90
2363;DHT22;1192;51.664;7.626;2022-09-06T02:06:58;23.70;90.90
2363;DHT22;1192;51.664;7.626;2022-09-06T02:09:28;23.70;90.90
2363;DHT22;1192;51.664;7.626;2022-09-06T02:11:59;23.70;90.90
2363;DHT22;1192;51.664;7.626;2022-09-06T02:14:30;23.70;91.00
2363;DHT22;1192;51.664;7.626;2022-09-06T02:16:59;23.70;91.00
2363;DHT22;1192;51.664;7.626;2022-09-06T02:19:30;23.70;91.00
2363;DHT22;1192;51.664;7.626;2022-09-06T02:21:59;23.70;91.00
2363;DHT22;1192;51.664;7.626;2022-09-06T02:24:30;23.70;91.10
2363;DHT22;1192;51.664;7.626;2022-09-06T02:26:59;23.70;91.10
2363;DHT22;1192;51.664;7.626;2022-09-06T02:29:26;23.70;91.10
2363;DHT22;1192;51.664;7.626;2022-09-06T02:31:58;23.70;91.10
2363;DHT22;1192;51.664;7.626;2022-09-06T02:34:26;23.70;91.20
2363;DHT22;1192;51.664;7.626;2022-09-06T02:36:53;23.60;91.10
2363;DHT22;1192;51.664;7.626;2022-09-06T02:39:20;23.60;91.20
2363;DHT22;1192;51.664;7.626;2022-09-06T02:41:47;23.60;91.20
2363;DHT22;1192;51.664;7.626;2022-09-06T02:44:14;23.60;91.20
2363;DHT22;1192;51.664;7.626;2022-09-06T02:46:41;23.60;91.20
2363;DHT22;1192;51.664;7.626;2022-09-06T02:49:09;23.60;91.20
2363;DHT22;1192;51.664;7.626;2022-09-06T02:51:36;23.60;91.20
2363;DHT22;1192;51.664;7.626;2022-09-06T02:54:03;23.60;91.30
2363;DHT22;1192;51.664;7.626;2022-09-06T02:56:30;23.50;91.20
2363;DHT22;1192;51.664;7.626;2022-09-06T02:58:58;23.50;91.30
2363;DHT22;1192;51.664;7.626;2022-09-06T03:01:25;23.50;91.30
2363;DHT22;1192;51.664;7.626;2022-09-06T03:03:51;23.50;91.30
2363;DHT22;1192;51.664;7.626;2022-09-06T03:06:19;23.50;91.30
2363;DHT22;1192;51.664;7.626;2022-09-06T03:08:46;23.50;91.30
2363;DHT22;1192;51.664;7.626;2022-09-06T03:11:13;23.50;91.40
2363;DHT22;1192;51.664;7.626;2022-09-06T03:13:39;23.50;91.40
2363;DHT22;1192;51.664;7.626;2022-09-06T03:16:06;23.50;91.40
2363;DHT22;1192;51.664;7.626;2022-09-06T03:18:33;23.50;91.40
2363;DHT22;1192;51.664;7.626;2022-09-06T03:21:00;23.50;91.40
2363;DHT22;1192;51.664;7.626;2022-09-06T03:23:29;23.50;91.50
2363;DHT22;1192;51.664;7.626;2022-09-06T03:25:56;23.50;91.40
2363;DHT22;1192;51.664;7.626;2022-09-06T03:28:23;23.40;91.40
2363;DHT22;1192;51.664;7.626;2022-09-06T03:30:50;23.40;91.40
2363;DHT22;1192;51.664;7.626;2022-09-06T03:33:17;23.40;91.40
2363;DHT22;1192;51.664;7.626;2022-09-06T03:35:47;23.40;91.40
2363;DHT22;1192;51.664;7.626;2022-09-06T03:38:14;23.40;91.50
2363;DHT22;1192;51.664;7.626;2022-09-06T03:40:44;23.40;91.50
2363;DHT22;1192;51.664;7.626;2022-09-06T03:43:11;23.40;91.50
2363;DHT22;1192;51.664;7.626;2022-09-06T03:45:38;23.40;91.50
2363;DHT22;1192;51.664;7.626;2022-09-06T03:48:05;23.40;91.50
2363;DHT22;1192;51.664;7.626;2022-09-06T03:50:31;23.40;91.50
2363;DHT22;1192;51.664;7.626;2022-09-06T03:52:58;23.40;91.50
2363;DHT22;1192;51.664;7.626;2022-09-06T03:55:25;23.40;91.50
2363;DHT22;1192;51.664;7.626;2022-09-06T03:57:53;23.30;91.50
2363;DHT22;1192;51.664;7.626;2022-09-06T04:00:20;23.30;91.50
2363;DHT22;1192;51.664;7.626;2022-09-06T04:02:48;23.30;91.60
2363;DHT22;1192;51.664;7.626;2022-09-06T04:05:15;23.30;91.60
2363;DHT22;1192;51.664;7.626;2022-09-06T04:07:42;23.30;91.60
2363;DHT22;1192;51.664;7.626;2022-09-06T04:10:09;23.30;91.60
2363;DHT22;1192;51.664;7.626;2022-09-06T04:12:35;23.30;92.00
2363;DHT22;1192;51.664;7.626;2022-09-06T04:15:04;23.30;91.70
2363;DHT22;1192;51.664;7.626;2022-09-06T04:17:31;23.30;91.70
2363;DHT22;1192;51.664;7.626;2022-09-06T04:19:58;23.30;91.80
2363;DHT22;1192;51.664;7.626;2022-09-06T04:22:25;23.30;91.80
2363;DHT22;1192;51.664;7.626;2022-09-06T04:24:51;23.30;91.80
2363;DHT22;1192;51.664;7.626;2022-09-06T04:27:18;23.20;91.80
2363;DHT22;1192;51.664;7.626;2022-09-06T04:29:45;23.20;91.80
2363;DHT22;1192;51.664;7.626;2022-09-06T04:32:13;23.20;91.80
2363;DHT22;1192;51.664;7.626;2022-09-06T04:34:39;23.20;91.80
2363;DHT22;1192;51.664;7.626;2022-09-06T04:37:06;23.20;91.90
2363;DHT22;1192;51.664;7.626;2022-09-06T04:39:33;23.20;91.90
2363;DHT22;1192;51.664;7.626;2022-09-06T04:42:00;23.20;91.90
2363;DHT22;1192;51.664;7.626;2022-09-06T04:44:26;23.20;92.00
2363;DHT22;1192;51.664;7.626;2022-09-06T04:47:03;23.20;92.00
2363;DHT22;1192;51.664;7.626;2022-09-06T04:49:31;23.20;92.10
2363;DHT22;1192;51.664;7.626;2022-09-06T04:51:58;23.20;92.10
2363;DHT22;1192;51.664;7.626;2022-09-06T04:54:25;23.10;92.10
2363;DHT22;1192;51.664;7.626;2022-09-06T04:56:51;23.10;92.10
2363;DHT22;1192;51.664;7.626;2022-09-06T04:59:18;23.10;92.20
2363;DHT22;1192;51.664;7.626;2022-09-06T05:01:45;23.10;92.20
2363;DHT22;1192;51.664;7.626;2022-09-06T05:04:11;23.10;92.20
2363;DHT22;1192;51.664;7.626;2022-09-06T05:06:39;23.10;92.30
2363;DHT22;1192;51.664;7.626;2022-09-06T05:09:07;23.10;92.30
2363;DHT22;1192;51.664;7.626;2022-09-06T05:11:34;23.10;92.30
2363;DHT22;1192;51.664;7.626;2022-09-06T05:14:01;23.10;92.30
2363;DHT22;1192;51.664;7.626;2022-09-06T05:16:28;23.10;92.40
2363;DHT22;1192;51.664;7.626;2022-09-06T05:18:54;23.10;92.50
2363;DHT22;1192;51.664;7.626;2022-09-06T05:21:21;23.10;92.50
2363;DHT22;1192;51.664;7.626;2022-09-06T05:23:49;23.00;92.50
2363;DHT22;1192;51.664;7.626;2022-09-06T05:26:16;23.00;92.60
2363;DHT22;1192;51.664;7.626;2022-09-06T05:28:43;23.00;92.70
2363;DHT22;1192;51.664;7.626;2022-09-06T05:31:23;23.00;92.80
2363;DHT22;1192;51.664;7.626;2022-09-06T05:33:50;23.00;92.80
2363;DHT22;1192;51.664;7.626;2022-09-06T05:36:17;23.00;92.90
2363;DHT22;1192;51.664;7.626;2022-09-06T05:38:44;23.00;93.00
2363;DHT22;1192;51.664;7.626;2022-09-06T05:41:12;23.00;93.10
2363;DHT22;1192;51.664;7.626;2022-09-06T05:43:38;23.00;93.20
2363;DHT22;1192;51.664;7.626;2022-09-06T05:46:05;23.00;93.20
2363;DHT22;1192;51.664;7.626;2022-09-06T05:48:32;23.00;93.30
2363;DHT22;1192;51.664;7.626;2022-09-06T05:50:59;23.00;93.40
2363;DHT22;1192;51.664;7.626;2022-09-06T05:53:31;22.90;93.50
2363;DHT22;1192;51.664;7.626;2022-09-06T05:55:58;22.90;93.50
2363;DHT22;1192;51.664;7.626;2022-09-06T05:58:26;22.90;93.60
2363;DHT22;1192;51.664;7.626;2022-09-06T06:01:03;22.90;93.70
2363;DHT22;1192;51.664;7.626;2022-09-06T06:03:30;22.90;93.80
2363;DHT22;1192;51.664;7.626;2022-09-06T06:05:56;22.90;93.90
2363;DHT22;1192;51.664;7.626;2022-09-06T06:08:23;22.90;94.00
2363;DHT22;1192;51.664;7.626;2022-09-06T06:10:50;22.90;94.10
2363;DHT22;1192;51.664;7.626;2022-09-06T06:13:16;22.90;94.10
2363;DHT22;1192;51.664;7.626;2022-09-06T06:15:44;22.90;94.10
2363;DHT22;1192;51.664;7.626;2022-09-06T06:18:11;22.90;94.20
2363;DHT22;1192;51.664;7.626;2022-09-06T06:20:38;22.90;94.20
2363;DHT22;1192;51.664;7.626;2022-09-06T06:23:05;22.90;94.20
2363;DHT22;1192;51.664;7.626;2022-09-06T06:25:31;22.90;94.20
2363;DHT22;1192;51.664;7.626;2022-09-06T06:27:58;22.90;94.30
2363;DHT22;1192;51.664;7.626;2022-09-06T06:30:26;22.90;94.30
2363;DHT22;1192;51.664;7.626;2022-09-06T06:32:54;22.90;94.30
2363;DHT22;1192;51.664;7.626;2022-09-06T06:35:23;22.90;94.40
2363;DHT22;1192;51.664;7.626;2022-09-06T06:37:50;22.90;94.30
2363;DHT22;1192;51.664;7.626;2022-09-06T06:40:16;22.90;94.40
2363;DHT22;1192;51.664;7.626;2022-09-06T06:42:43;22.90;94.40
2363;DHT22;1192;51.664;7.626;2022-09-06T06:45:10;22.90;94.40
2363;DHT22;1192;51.664;7.626;2022-09-06T06:47:37;23.00;94.40
2363;DHT22;1192;51.664;7.626;2022-09-06T06:50:05;23.00;94.50
2363;DHT22;1192;51.664;7.626;2022-09-06T06:52:32;23.00;94.30
2363;DHT22;1192;51.664;7.626;2022-09-06T06:54:59;23.10;94.60
2363;DHT22;1192;51.664;7.626;2022-09-06T06:57:26;23.10;94.20
2363;DHT22;1192;51.664;7.626;2022-09-06T06:59:52;23.20;94.10
2363;DHT22;1192;51.664;7.626;2022-09-06T07:02:19;23.20;94.00
2363;DHT22;1192;51.664;7.626;2022-09-06T07:04:46;23.30;93.90
2363;DHT22;1192;51.664;7.626;2022-09-06T07:07:14;23.50;93.70
2363;DHT22;1192;51.664;7.626;2022-09-06T07:09:40;23.70;93.30
2363;DHT22;1192;51.664;7.626;2022-09-06T07:12:10;24.00;92.90
2363;DHT22;1192;51.664;7.626;2022-09-06T07:14:37;24.30;92.40
2363;DHT22;1192;51.664;7.626;2022-09-06T07:17:03;24.60;91.70
2363;DHT22;1192;51.664;7.626;2022-09-06T07:19:30;25.00;91.10
2363;DHT22;1192;51.664;7.626;2022-09-06T07:21:57;25.30;90.50
2363;DHT22;1192;51.664;7.626;2022-09-06T07:24:25;25.60;89.70
2363;DHT22;1192;51.664;7.626;2022-09-06T07:26:51;25.80;88.50
2363;DHT22;1192;51.664;7.626;2022-09-06T07:29:18;26.00;87.50
2363;DHT22;1192;51.664;7.626;2022-09-06T07:31:45;26.20;86.80
2363;DHT22;1192;51.664;7.626;2022-09-06T07:34:11;26.30;86.20
2363;DHT22;1192;51.664;7.626;2022-09-06T07:36:38;26.40;85.60
2363;DHT22;1192;51.664;7.626;2022-09-06T07:39:05;26.40;85.30
2363;DHT22;1192;51.664;7.626;2022-09-06T07:41:33;26.50;85.00
2363;DHT22;1192;51.664;7.626;2022-09-06T07:44:00;26.50;85.10
2363;DHT22;1192;51.664;7.626;2022-09-06T07:46:27;26.60;84.40
2363;DHT22;1192;51.664;7.626;2022-09-06T07:48:53;26.60;84.10
2363;DHT22;1192;51.664;7.626;2022-09-06T07:51:21;26.70;84.60
2363;DHT22;1192;51.664;7.626;2022-09-06T07:53:49;26.70;83.60
2363;DHT22;1192;51.664;7.626;2022-09-06T07:56:18;26.80;83.40
2363;DHT22;1192;51.664;7.626;2022-09-06T07:58:48;26.90;83.20
2363;DHT22;1192;51.664;7.626;2022-09-06T08:01:26;27.00;83.10
2363;DHT22;1192;51.664;7.626;2022-09-06T08:03:54;27.00;82.80
2363;DHT22;1192;51.664;7.626;2022-09-06T08:06:22;27.00;82.50
2363;DHT22;1192;51.664;7.626;2022-09-06T08:08:49;27.10;82.30
2363;DHT22;1192;51.664;7.626;2022-09-06T08:11:16;27.10;82.10
2363;DHT22;1192;51.664;7.626;2022-09-06T08:13:43;27.20;82.10
2363;DHT22;1192;51.664;7.626;2022-09-06T08:16:13;27.20;82.00
2363;DHT22;1192;51.664;7.626;2022-09-06T08:18:41;27.20;82.70
2363;DHT22;1192;51.664;7.626;2022-09-06T08:21:09;27.30;81.80
2363;DHT22;1192;51.664;7.626;2022-09-06T08:23:37;27.20;81.50
2363;DHT22;1192;51.664;7.626;2022-09-06T08:26:04;27.30;81.50
2363;DHT22;1192;51.664;7.626;2022-09-06T08:28:31;27.40;81.40
2363;DHT22;1192;51.664;7.626;2022-09-06T08:31:05;27.40;81.30
2363;DHT22;1192;51.664;7.626;2022-09-06T08:33:33;27.40;81.00
2363;DHT22;1192;51.664;7.626;2022-09-06T08:36:00;27.40;81.00
2363;DHT22;1192;51.664;7.626;2022-09-06T08:38:27;27.40;80.90
2363;DHT22;1192;51.664;7.626;2022-09-06T08:41:04;27.50;80.90
2363;DHT22;1192;51.664;7.626;2022-09-06T08:43:32;27.50;80.80
2363;DHT22;1192;51.664;7.626;2022-09-06T08:45:59;27.50;80.70
2363;DHT22;1192;51.664;7.626;2022-09-06T08:48:29;27.50;80.40
2363;DHT22;1192;51.664;7.626;2022-09-06T08:51:10;27.50;80.40
2363;DHT22;1192;51.664;7.626;2022-09-06T08:53:42;27.50;80.10
2363;DHT22;1192;51.664;7.626;2022-09-06T08:56:14;27.50;80.20
2363;DHT22;1192;51.664;7.626;2022-09-06T08:58:55;27.50;80.00
2363;DHT22;1192;51.664;7.626;2022-09-06T09:01:28;27.50;80.30
2363;DHT22;1192;51.664;7.626;2022-09-06T09:03:57;27.50;80.30
2363;DHT22;1192;51.664;7.626;2022-09-06T09:06:30;27.50;80.10
2363;DHT22;1192;51.664;7.626;2022-09-06T09:09:02;27.50;80.20
2363;DHT22;1192;51.664;7.626;2022-09-06T09:11:29;27.50;80.20
2363;DHT22;1192;51.664;7.626;2022-09-06T09:14:02;27.40;80.20
2363;DHT22;1192;51.664;7.626;2022-09-06T09:16:31;27.40;79.90
2363;DHT22;1192;51.664;7.626;2022-09-06T09:18:59;27.40;79.80
2363;DHT22;1192;51.664;7.626;2022-09-06T09:21:30;27.40;79.50
2363;DHT22;1192;51.664;7.626;2022-09-06T09:24:02;27.40;79.70
2363;DHT22;1192;51.664;7.626;2022-09-06T09:26:34;27.40;79.80
2363;DHT22;1192;51.664;7.626;2022-09-06T09:29:05;27.40;79.70
2363;DHT22;1192;51.664;7.626;2022-09-06T09:31:34;27.40;79.90
2363;DHT22;1192;51.664;7.626;2022-09-06T09:34:01;27.40;80.10
2363;DHT22;1192;51.664;7.626;2022-09-06T09:36:34;27.40;80.20
2363;DHT22;1192;51.664;7.626;2022-09-06T09:39:08;27.40;79.90
2363;DHT22;1192;51.664;7.626;2022-09-06T09:41:35;27.40;79.90
2363;DHT22;1192;51.664;7.626;2022-09-06T09:44:06;27.40;80.00
2363;DHT22;1192;51.664;7.626;2022-09-06T09:46:35;27.40;80.20
2363;DHT22;1192;51.664;7.626;2022-09-06T09:49:08;27.40;80.30
2363;DHT22;1192;51.664;7.626;2022-09-06T09:51:37;27.30;80.30
2363;DHT22;1192;51.664;7.626;2022-09-06T09:54:07;27.30;80.10
2363;DHT22;1192;51.664;7.626;2022-09-06T09:56:39;27.30;80.30
2363;DHT22;1192;51.664;7.626;2022-09-06T09:59:23;27.30;80.40
2363;DHT22;1192;51.664;7.626;2022-09-06T10:01:53;27.30;80.40
2363;DHT22;1192;51.664;7.626;2022-09-06T10:04:27;27.30;80.30
2363;DHT22;1192;51.664;7.626;2022-09-06T10:07:08;27.30;80.50
2363;DHT22;1192;51.664;7.626;2022-09-06T10:09:37;27.30;81.40
2363;DHT22;1192;51.664;7.626;2022-09-06T10:12:05;27.20;80.30
2363;DHT22;1192;51.664;7.626;2022-09-06T10:14:39;27.20;80.60
2363;DHT22;1192;51.664;7.626;2022-09-06T10:17:07;27.20;80.70
2363;DHT22;1192;51.664;7.626;2022-09-06T10:19:39;27.20;80.70
2363;DHT22;1192;51.664;7.626;2022-09-06T10:22:18;27.20;81.00
2363;DHT22;1192;51.664;7.626;2022-09-06T10:25:09;27.20;80.80
2363;DHT22;1192;51.664;7.626;2022-09-06T10:27:46;27.20;80.70
2363;DHT22;1192;51.664;7.626;2022-09-06T10:30:28;27.20;80.70
2363;DHT22;1192;51.664;7.626;2022-09-06T10:33:01;27.10;80.70
2363;DHT22;1192;51.664;7.626;2022-09-06T10:35:31;27.20;80.90
2363;DHT22;1192;51.664;7.626;2022-09-06T10:38:12;27.10;80.70
2363;DHT22;1192;51.664;7.626;2022-09-06T10:40:52;27.10;80.40
2363;DHT22;1192;51.664;7.626;2022-09-06T10:43:22;27.10;80.60
2363;DHT22;1192;51.664;7.626;2022-09-06T10:45:56;27.10;80.40
2363;DHT22;1192;51.664;7.626;2022-09-06T10:48:25;27.10;80.60
2363;DHT22;1192;51.664;7.626;2022-09-06T10:50:57;27.10;80.70
2363;DHT22;1192;51.664;7.626;2022-09-06T10:53:38;27.10;80.70
2363;DHT22;1192;51.664;7.626;2022-09-06T10:56:12;27.10;80.90
2363;DHT22;1192;51.664;7.626;2022-09-06T10:58:46;27.00;80.70
2363;DHT22;1192;51.664;7.626;2022-09-06T11:01:22;27.00;80.80
2363;DHT22;1192;51.664;7.626;2022-09-06T11:03:51;27.00;81.00
2363;DHT22;1192;51.664;7.626;2022-09-06T11:06:21;27.00;81.00
2363;DHT22;1192;51.664;7.626;2022-09-06T11:09:01;27.00;81.00
2363;DHT22;1192;51.664;7.626;2022-09-06T11:11:32;27.00;80.70
2363;DHT22;1192;51.664;7.626;2022-09-06T11:14:06;27.00;80.60
2363;DHT22;1192;51.664;7.626;2022-09-06T11:16:40;27.00;81.00
2363;DHT22;1192;51.664;7.626;2022-09-06T11:19:11;27.00;80.90
2363;DHT22;1192;51.664;7.626;2022-09-06T11:22:01;27.00;80.90
2363;DHT22;1192;51.664;7.626;2022-09-06T11:24:54;27.00;80.90
2363;DHT22;1192;51.664;7.626;2022-09-06T11:27:33;27.00;80.90
2363;DHT22;1192;51.664;7.626;2022-09-06T11:30:03;27.00;80.90
2363;DHT22;1192;51.664;7.626;2022-09-06T11:32:33;27.00;80.80
2363;DHT22;1192;51.664;7.626;2022-09-06T11:35:05;27.00;80.90
2363;DHT22;1192;51.664;7.626;2022-09-06T11:37:36;27.00;80.90
2363;DHT22;1192;51.664;7.626;2022-09-06T11:40:11;27.00;80.80
2363;DHT22;1192;51.664;7.626;2022-09-06T11:43:08;27.00;81.00
2363;DHT22;1192;51.664;7.626;2022-09-06T11:45:41;27.00;80.70
2363;DHT22;1192;51.664;7.626;2022-09-06T11:48:43;27.00;80.80
2363;DHT22;1192;51.664;7.626;2022-09-06T11:51:30;27.00;80.70
2363;DHT22;1192;51.664;7.626;2022-09-06T11:54:13;27.00;80.80
2363;DHT22;1192;51.664;7.626;2022-09-06T11:56:52;27.00;80.70
2363;DHT22;1192;51.664;7.626;2022-09-06T11:59:30;27.00;80.70
2363;DHT22;1192;51.664;7.626;2022-09-06T12:02:02;27.00;80.80
2363;DHT22;1192;51.664;7.626;2022-09-06T12:07:34;26.90;80.70
2363;DHT22;1192;51.664;7.626;2022-09-06T12:10:44;26.90;80.70
2363;DHT22;1192;51.664;7.626;2022-09-06T12:13:47;26.90;80.90
2363;DHT22;1192;51.664;7.626;2022-09-06T12:16:15;26.90;80.80
2363;DHT22;1192;51.664;7.626;2022-09-06T12:18:55;26.90;80.90
2363;DHT22;1192;51.664;7.626;2022-09-06T12:21:36;26.90;80.60
2363;DHT22;1192;51.664;7.626;2022-09-06T12:24:04;26.80;80.40
2363;DHT22;1192;51.664;7.626;2022-09-06T12:26:45;26.80;80.60
2363;DHT22;1192;51.664;7.626;2022-09-06T12:29:15;26.80;80.50
2363;DHT22;1192;51.664;7.626;2022-09-06T12:31:43;26.80;80.40
2363;DHT22;1192;51.664;7.626;2022-09-06T12:34:16;26.80;80.50
2363;DHT22;1192;51.664;7.626;2022-09-06T12:36:52;26.80;80.40
2363;DHT22;1192;51.664;7.626;2022-09-06T12:39:19;26.80;80.40
2363;DHT22;1192;51.664;7.626;2022-09-06T12:41:48;26.80;80.30
2363;DHT22;1192;51.664;7.626;2022-09-06T12:44:26;26.80;80.30
2363;DHT22;1192;51.664;7.626;2022-09-06T12:46:53;26.80;80.30
2363;DHT22;1192;51.664;7.626;2022-09-06T12:49:21;26.80;80.30
2363;DHT22;1192;51.664;7.626;2022-09-06T12:51:48;26.80;80.20
2363;DHT22;1192;51.664;7.626;2022-09-06T12:54:19;26.80;80.30
2363;DHT22;1192;51.664;7.626;2022-09-06T12:56:46;26.80;80.20
2363;DHT22;1192;51.664;7.626;2022-09-06T12:59:17;26.80;80.20
2363;DHT22;1192;51.664;7.626;2022-09-06T13:01:55;26.80;80.20
2363;DHT22;1192;51.664;7.626;2022-09-06T13:04:31;26.80;80.10
2363;DHT22;1192;51.664;7.626;2022-09-06T13:07:00;26.80;80.00
2363;DHT22;1192;51.664;7.626;2022-09-06T13:09:28;26.80;79.60
2363;DHT22;1192;51.664;7.626;2022-09-06T13:12:02;26.80;79.80
2363;DHT22;1192;51.664;7.626;2022-09-06T13:14:32;26.80;79.90
2363;DHT22;1192;51.664;7.626;2022-09-06T13:16:59;26.80;79.90
2363;DHT22;1192;51.664;7.626;2022-09-06T13:19:31;26.80;79.80
2363;DHT22;1192;51.664;7.626;2022-09-06T13:21:59;26.80;79.80
2363;DHT22;1192;51.664;7.626;2022-09-06T13:24:38;26.80;79.70
2363;DHT22;1192;51.664;7.626;2022-09-06T13:27:25;26.90;79.70
2363;DHT22;1192;51.664;7.626;2022-09-06T13:29:57;26.90;79.80
2363;DHT22;1192;51.664;7.626;2022-09-06T13:32:25;26.90;79.70
2363;DHT22;1192;51.664;7.626;2022-09-06T13:34:52;26.90;79.50
2363;DHT22;1192;51.664;7.626;2022-09-06T13:37:22;26.90;79.50
2363;DHT22;1192;51.664;7.626;2022-09-06T13:39:50;26.90;79.40
2363;DHT22;1192;51.664;7.626;2022-09-06T13:42:24;26.90;79.40
2363;DHT22;1192;51.664;7.626;2022-09-06T13:44:51;26.90;79.40
2363;DHT22;1192;51.664;7.626;2022-09-06T13:47:19;26.90;79.30
2363;DHT22;1192;51.664;7.626;2022-09-06T13:49:46;27.00;79.30
2363;DHT22;1192;51.664;7.626;2022-09-06T13:52:14;26.90;79.20
2363;DHT22;1192;51.664;7.626;2022-09-06T13:54:40;27.00;79.40
2363;DHT22;1192;51.664;7.626;2022-09-06T13:57:07;27.00;79.20
2363;DHT22;1192;51.664;7.626;2022-09-06T13:59:34;26.90;79.10
2363;DHT22;1192;51.664;7.626;2022-09-06T14:02:03;27.00;79.00
2363;DHT22;1192;51.664;7.626;2022-09-06T14:04:32;27.00;78.90
2363;DHT22;1192;51.664;7.626;2022-09-06T14:07:00;27.00;78.90
2363;DHT22;1192;51.664;7.626;2022-09-06T14:09:27;27.10;74.70
2363;DHT22;1192;51.664;7.626;2022-09-06T14:11:53;27.40;73.70
2363;DHT22;1192;51.664;7.626;2022-09-06T14:14:20;27.40;74.80
2363;DHT22;1192;51.664;7.626;2022-09-06T14:16:47;27.40;75.00
2363;DHT22;1192;51.664;7.626;2022-09-06T14:19:14;27.40;74.50
2363;DHT22;1192;51.664;7.626;2022-09-06T14:21:42;27.40;74.80
2363;DHT22;1192;51.664;7.626;2022-09-06T14:24:09;27.30;74.80
2363;DHT22;1192;51.664;7.626;2022-09-06T14:26:36;27.30;75.30
2363;DHT22;1192;51.664;7.626;2022-09-06T14:29:03;27.30;75.40
2363;DHT22;1192;51.664;7.626;2022-09-06T14:31:30;27.20;75.40
2363;DHT22;1192;51.664;7.626;2022-09-06T14:33:58;27.20;75.70
2363;DHT22;1192;51.664;7.626;2022-09-06T14:36:28;27.20;75.90
2363;DHT22;1192;51.664;7.626;2022-09-06T14:38:58;27.20;76.10
2363;DHT22;1192;51.664;7.626;2022-09-06T14:41:25;27.20;76.20
2363;DHT22;1192;51.664;7.626;2022-09-06T14:43:54;27.10;76.20
2363;DHT22;1192;51.664;7.626;2022-09-06T14:46:22;27.10;76.20
2363;DHT22;1192;51.664;7.626;2022-09-06T14:48:55;27.10;76.30
2363;DHT22;1192;51.664;7.626;2022-09-06T14:51:22;27.10;76.30
2363;DHT22;1192;51.664;7.626;2022-09-06T14:53:51;27.10;76.40
2363;DHT22;1192;51.664;7.626;2022-09-06T14:56:19;27.10;76.20
2363;DHT22;1192;51.664;7.626;2022-09-06T14:58:46;27.10;76.20
2363;DHT22;1192;51.664;7.626;2022-09-06T15:01:15;27.10;76.40
2363;DHT22;1192;51.664;7.626;2022-09-06T15:03:43;27.10;76.30
2363;DHT22;1192;51.664;7.626;2022-09-06T15:06:13;27.10;76.20
2363;DHT22;1192;51.664;7.626;2022-09-06T15:08:40;27.10;76.30
2363;DHT22;1192;51.664;7.626;2022-09-06T15:11:08;27.10;76.40
2363;DHT22;1192;51.664;7.626;2022-09-06T15:13:39;27.10;76.40
2363;DHT22;1192;51.664;7.626;2022-09-06T15:16:07;27.10;76.20
2363;DHT22;1192;51.664;7.626;2022-09-06T15:18:35;27.10;76.30
2363;DHT22;1192;51.664;7.626;2022-09-06T15:21:09;27.10;76.20
2363;DHT22;1192;51.664;7.626;2022-09-06T15:23:36;27.10;76.30
2363;DHT22;1192;51.664;7.626;2022-09-06T15:26:05;27.10;76.50
2363;DHT22;1192;51.664;7.626;2022-09-06T15:28:33;27.10;76.40
2363;DHT22;1192;51.664;7.626;2022-09-06T15:31:01;27.10;76.30
2363;DHT22;1192;51.664;7.626;2022-09-06T15:33:28;27.10;76.50
2363;DHT22;1192;51.664;7.626;2022-09-06T15:35:55;27.10;76.40
2363;DHT22;1192;51.664;7.626;2022-09-06T15:38:22;27.10;76.50
2363;DHT22;1192;51.664;7.626;2022-09-06T15:40:49;27.10;76.40
2363;DHT22;1192;51.664;7.626;2022-09-06T15:43:16;27.10;76.30
2363;DHT22;1192;51.664;7.626;2022-09-06T15:45:46;27.10;76.50
2363;DHT22;1192;51.664;7.626;2022-09-06T15:48:15;27.10;76.50
2363;DHT22;1192;51.664;7.626;2022-09-06T15:50:43;27.10;76.30
2363;DHT22;1192;51.664;7.626;2022-09-06T15:53:10;27.10;76.40
2363;DHT22;1192;51.664;7.626;2022-09-06T15:55:36;27.10;76.40
2363;DHT22;1192;51.664;7.626;2022-09-06T15:58:22;27.10;76.40
2363;DHT22;1192;51.664;7.626;2022-09-06T16:01:00;27.10;76.40
2363;DHT22;1192;51.664;7.626;2022-09-06T16:03:28;27.10;76.30
2363;DHT22;1192;51.664;7.626;2022-09-06T16:06:00;27.10;76.20
2363;DHT22;1192;51.664;7.626;2022-09-06T16:08:29;27.10;76.00
2363;DHT22;1192;51.664;7.626;2022-09-06T16:10:55;27.10;75.80
2363;DHT22;1192;51.664;7.626;2022-09-06T16:13:22;27.10;75.90
2363;DHT22;1192;51.664;7.626;2022-09-06T16:15:57;27.10;75.70
2363;DHT22;1192;51.664;7.626;2022-09-06T16:18:23;27.10;75.70
2363;DHT22;1192;51.664;7.626;2022-09-06T16:20:51;27.10;75.50
2363;DHT22;1192;51.664;7.626;2022-09-06T16:23:18;27.10;75.00
2363;DHT22;1192;51.664;7.626;2022-09-06T16:25:46;27.10;75.00
2363;DHT22;1192;51.664;7.626;2022-09-06T16:28:14;27.10;75.10